sensor_id;sensor_type;location;lat;lon;timestamp;temperature;humidity
32865;DHT22;19219;44.500;11.188;2022-12-05T00:00:02;9.80;99.90
32865;DHT22;19219;44.500;11.188;2022-12-05T00:02:28;9.70;99.90
32865;DHT22;19219;44.500;11.188;2022-12-05T00:04:54;9.80;99.90
32865;DHT22;19219;44.500;11.188;2022-12-05T00:07:19;9.80;99.90
32865;DHT22;19219;44.500;11.188;2022-12-05T00:09:45;9.90;99.90
32865;DHT22;19219;44.500;11.188;2022-12-05T00:12:10;9.90;99.90
32865;DHT22;19219;44.500;11.188;2022-12-05T00:14:36;9.80;99.90
32865;DHT22;19219;44.500;11.188;2022-12-05T00:17:01;9.80;99.90
32865;DHT22;19219;44.500;11.188;2022-12-05T00:19:27;9.70;99.90
32865;DHT22;19219;44.500;11.188;2022-12-05T00:21:52;9.70;99.90
32865;DHT22;19219;44.500;11.188;2022-12-05T00:24:18;9.70;99.90
32865;DHT22;19219;44.500;11.188;2022-12-05T00:26:45;9.70;99.90
32865;DHT22;19219;44.500;11.188;2022-12-05T00:29:10;9.60;99.90
32865;DHT22;19219;44.500;11.188;2022-12-05T00:31:36;9.60;99.90
32865;DHT22;19219;44.500;11.188;2022-12-05T00:34:02;9.50;99.90
32865;DHT22;19219;44.500;11.188;2022-12-05T00:36:28;9.50;99.90
32865;DHT22;19219;44.500;11.188;2022-12-05T00:38:54;9.40;99.90
32865;DHT22;19219;44.500;11.188;2022-12-05T00:41:21;9.50;99.90
32865;DHT22;19219;44.500;11.188;2022-12-05T00:43:47;9.50;99.90
32865;DHT22;19219;44.500;11.188;2022-12-05T00:46:15;9.40;99.90
32865;DHT22;19219;44.500;11.188;2022-12-05T00:48:41;9.40;99.90
32865;DHT22;19219;44.500;11.188;2022-12-05T00:51:17;9.50;99.90
32865;DHT22;19219;44.500;11.188;2022-12-05T00:53:43;9.50;99.90
32865;DHT22;19219;44.500;11.188;2022-12-05T00:56:13;9.50;99.90
32865;DHT22;19219;44.500;11.188;2022-12-05T00:58:39;9.50;99.90
32865;DHT22;19219;44.500;11.188;2022-12-05T01:01:14;9.50;99.90
32865;DHT22;19219;44.500;11.188;2022-12-05T01:03:40;9.50;99.90
32865;DHT22;19219;44.500;11.188;2022-12-05T01:06:07;9.50;99.90
32865;DHT22;19219;44.500;11.188;2022-12-05T01:08:33;9.50;99.90
32865;DHT22;19219;44.500;11.188;2022-12-05T01:10:59;9.50;99.90
32865;DHT22;19219;44.500;11.188;2022-12-05T01:13:25;9.60;99.90
32865;DHT22;19219;44.500;11.188;2022-12-05T01:15:51;9.60;99.90
32865;DHT22;19219;44.500;11.188;2022-12-05T01:18:17;9.60;99.90
32865;DHT22;19219;44.500;11.188;2022-12-05T01:20:43;9.60;99.90
32865;DHT22;19219;44.500;11.188;2022-12-05T01:23:09;9.60;99.90
32865;DHT22;19219;44.500;11.188;2022-12-05T01:25:38;9.50;99.90
32865;DHT22;19219;44.500;11.188;2022-12-05T01:28:04;9.60;99.90
32865;DHT22;19219;44.500;11.188;2022-12-05T01:30:29;9.60;99.90
32865;DHT22;19219;44.500;11.188;2022-12-05T01:32:55;9.60;99.90
32865;DHT22;19219;44.500;11.188;2022-12-05T01:35:20;9.60;99.90
32865;DHT22;19219;44.500;11.188;2022-12-05T01:37:46;9.70;99.90
32865;DHT22;19219;44.500;11.188;2022-12-05T01:40:11;9.70;99.90
32865;DHT22;19219;44.500;11.188;2022-12-05T01:42:38;9.50;99.90
32865;DHT22;19219;44.500;11.188;2022-12-05T01:45:07;9.60;99.90
32865;DHT22;19219;44.500;11.188;2022-12-05T01:47:36;9.50;99.90
32865;DHT22;19219;44.500;11.188;2022-12-05T01:50:02;9.50;99.90
32865;DHT22;19219;44.500;11.188;2022-12-05T01:52:28;9.60;99.90
32865;DHT22;19219;44.500;11.188;2022-12-05T01:54:56;9.70;99.90
32865;DHT22;19219;44.500;11.188;2022-12-05T01:57:23;9.70;99.90
32865;DHT22;19219;44.500;11.188;2022-12-05T01:59:50;9.70;99.90
32865;DHT22;19219;44.500;11.188;2022-12-05T02:02:16;9.70;99.90
32865;DHT22;19219;44.500;11.188;2022-12-05T02:04:47;9.70;99.90
32865;DHT22;19219;44.500;11.188;2022-12-05T02:07:14;9.60;99.90
32865;DHT22;19219;44.500;11.188;2022-12-05T02:09:40;9.60;99.90
32865;DHT22;19219;44.500;11.188;2022-12-05T02:12:06;9.70;99.90
32865;DHT22;19219;44.500;11.188;2022-12-05T02:19:49;9.70;99.90
32865;DHT22;19219;44.500;11.188;2022-12-05T02:35:45;9.70;99.90
32865;DHT22;19219;44.500;11.188;2022-12-05T02:41:01;9.70;99.90
32865;DHT22;19219;44.500;11.188;2022-12-05T02:43:40;9.70;99.90
32865;DHT22;19219;44.500;11.188;2022-12-05T02:46:11;9.70;99.90
32865;DHT22;19219;44.500;11.188;2022-12-05T02:48:38;9.70;99.90
32865;DHT22;19219;44.500;11.188;2022-12-05T02:51:04;9.70;99.90
32865;DHT22;19219;44.500;11.188;2022-12-05T02:53:31;9.70;99.90
32865;DHT22;19219;44.500;11.188;2022-12-05T02:55:59;9.70;99.90
32865;DHT22;19219;44.500;11.188;2022-12-05T02:58:29;9.70;99.90
32865;DHT22;19219;44.500;11.188;2022-12-05T03:00:57;9.80;99.90
32865;DHT22;19219;44.500;11.188;2022-12-05T03:03:22;9.80;99.90
32865;DHT22;19219;44.500;11.188;2022-12-05T03:08:28;9.80;99.90
32865;DHT22;19219;44.500;11.188;2022-12-05T03:10:55;9.80;99.90
32865;DHT22;19219;44.500;11.188;2022-12-05T03:13:30;9.80;99.90
32865;DHT22;19219;44.500;11.188;2022-12-05T03:15:59;9.70;99.90
32865;DHT22;19219;44.500;11.188;2022-12-05T03:18:29;9.60;99.90
32865;DHT22;19219;44.500;11.188;2022-12-05T03:23:25;9.60;99.90
32865;DHT22;19219;44.500;11.188;2022-12-05T03:28:40;9.70;99.90
32865;DHT22;19219;44.500;11.188;2022-12-05T03:31:08;9.70;99.90
32865;DHT22;19219;44.500;11.188;2022-12-05T03:33:36;9.70;99.90
32865;DHT22;19219;44.500;11.188;2022-12-05T03:36:06;9.70;99.90
32865;DHT22;19219;44.500;11.188;2022-12-05T03:43:51;9.70;99.90
32865;DHT22;19219;44.500;11.188;2022-12-05T03:46:26;9.70;99.90
32865;DHT22;19219;44.500;11.188;2022-12-05T03:51:29;9.70;99.90
32865;DHT22;19219;44.500;11.188;2022-12-05T03:54:05;9.70;99.90
32865;DHT22;19219;44.500;11.188;2022-12-05T03:56:37;9.70;99.90
32865;DHT22;19219;44.500;11.188;2022-12-05T03:59:13;9.70;99.90
32865;DHT22;19219;44.500;11.188;2022-12-05T04:01:40;9.70;99.90
32865;DHT22;19219;44.500;11.188;2022-12-05T04:04:11;9.70;99.90
32865;DHT22;19219;44.500;11.188;2022-12-05T04:06:38;9.70;99.90
32865;DHT22;19219;44.500;11.188;2022-12-05T04:09:09;9.70;99.90
32865;DHT22;19219;44.500;11.188;2022-12-05T04:11:37;9.70;99.90
32865;DHT22;19219;44.500;11.188;2022-12-05T04:14:05;9.70;99.90
32865;DHT22;19219;44.500;11.188;2022-12-05T04:16:49;9.70;99.90
32865;DHT22;19219;44.500;11.188;2022-12-05T04:19:35;9.70;99.90
32865;DHT22;19219;44.500;11.188;2022-12-05T04:22:21;9.50;99.90
32865;DHT22;19219;44.500;11.188;2022-12-05T04:24:49;9.60;99.90
32865;DHT22;19219;44.500;11.188;2022-12-05T04:30:18;9.60;99.90
32865;DHT22;19219;44.500;11.188;2022-12-05T04:32:59;9.60;99.90
32865;DHT22;19219;44.500;11.188;2022-12-05T04:35:31;9.40;99.90
32865;DHT22;19219;44.500;11.188;2022-12-05T04:37:59;9.50;99.90
32865;DHT22;19219;44.500;11.188;2022-12-05T04:40:45;9.50;99.90
32865;DHT22;19219;44.500;11.188;2022-12-05T04:43:13;9.60;99.90
32865;DHT22;19219;44.500;11.188;2022-12-05T04:45:40;9.60;99.90
32865;DHT22;19219;44.500;11.188;2022-12-05T04:48:09;9.60;99.90
32865;DHT22;19219;44.500;11.188;2022-12-05T04:50:36;9.50;99.90
32865;DHT22;19219;44.500;11.188;2022-12-05T04:53:02;9.50;99.90
32865;DHT22;19219;44.500;11.188;2022-12-05T04:55:28;9.50;99.90
32865;DHT22;19219;44.500;11.188;2022-12-05T04:58:11;9.50;99.90
32865;DHT22;19219;44.500;11.188;2022-12-05T05:00:41;9.40;99.90
32865;DHT22;19219;44.500;11.188;2022-12-05T05:05:41;9.40;99.90
32865;DHT22;19219;44.500;11.188;2022-12-05T05:08:14;9.50;99.90
32865;DHT22;19219;44.500;11.188;2022-12-05T05:10:44;9.50;99.90
32865;DHT22;19219;44.500;11.188;2022-12-05T05:13:12;9.40;99.90
32865;DHT22;19219;44.500;11.188;2022-12-05T05:15:38;9.30;99.90
32865;DHT22;19219;44.500;11.188;2022-12-05T05:18:03;9.40;99.90
32865;DHT22;19219;44.500;11.188;2022-12-05T05:20:29;9.40;99.90
32865;DHT22;19219;44.500;11.188;2022-12-05T05:22:56;9.40;99.90
32865;DHT22;19219;44.500;11.188;2022-12-05T05:25:22;9.30;99.90
32865;DHT22;19219;44.500;11.188;2022-12-05T05:27:49;9.30;99.90
32865;DHT22;19219;44.500;11.188;2022-12-05T05:30:15;9.30;99.90
32865;DHT22;19219;44.500;11.188;2022-12-05T05:32:40;9.30;99.90
32865;DHT22;19219;44.500;11.188;2022-12-05T05:35:06;9.30;99.90
32865;DHT22;19219;44.500;11.188;2022-12-05T05:37:31;9.40;99.90
32865;DHT22;19219;44.500;11.188;2022-12-05T05:39:57;9.40;99.90
32865;DHT22;19219;44.500;11.188;2022-12-05T05:42:22;9.30;99.90
32865;DHT22;19219;44.500;11.188;2022-12-05T05:44:48;9.40;99.90
32865;DHT22;19219;44.500;11.188;2022-12-05T05:47:14;9.40;99.90
32865;DHT22;19219;44.500;11.188;2022-12-05T05:49:39;9.30;99.90
32865;DHT22;19219;44.500;11.188;2022-12-05T05:52:05;9.30;99.90
32865;DHT22;19219;44.500;11.188;2022-12-05T05:54:30;9.30;99.90
32865;DHT22;19219;44.500;11.188;2022-12-05T05:56:56;9.30;99.90
32865;DHT22;19219;44.500;11.188;2022-12-05T05:59:21;9.40;99.90
32865;DHT22;19219;44.500;11.188;2022-12-05T06:01:47;9.40;99.90
32865;DHT22;19219;44.500;11.188;2022-12-05T06:04:12;9.40;99.90
32865;DHT22;19219;44.500;11.188;2022-12-05T06:06:39;9.30;99.90
32865;DHT22;19219;44.500;11.188;2022-12-05T06:09:05;9.30;99.90
32865;DHT22;19219;44.500;11.188;2022-12-05T06:11:31;9.30;99.90
32865;DHT22;19219;44.500;11.188;2022-12-05T06:13:57;9.30;99.90
32865;DHT22;19219;44.500;11.188;2022-12-05T06:16:25;9.40;99.90
32865;DHT22;19219;44.500;11.188;2022-12-05T06:18:51;9.30;99.90
32865;DHT22;19219;44.500;11.188;2022-12-05T06:21:16;9.30;99.90
32865;DHT22;19219;44.500;11.188;2022-12-05T06:23:42;9.30;99.90
32865;DHT22;19219;44.500;11.188;2022-12-05T06:26:11;9.30;99.90
32865;DHT22;19219;44.500;11.188;2022-12-05T06:28:37;9.30;99.90
32865;DHT22;19219;44.500;11.188;2022-12-05T06:31:23;9.20;99.90
32865;DHT22;19219;44.500;11.188;2022-12-05T06:33:51;9.20;99.90
32865;DHT22;19219;44.500;11.188;2022-12-05T06:36:17;9.10;99.90
32865;DHT22;19219;44.500;11.188;2022-12-05T06:38:43;9.10;99.90
32865;DHT22;19219;44.500;11.188;2022-12-05T06:41:10;9.00;99.90
32865;DHT22;19219;44.500;11.188;2022-12-05T06:43:36;9.10;99.90
32865;DHT22;19219;44.500;11.188;2022-12-05T06:46:05;9.00;99.90
32865;DHT22;19219;44.500;11.188;2022-12-05T06:48:31;9.00;99.90
32865;DHT22;19219;44.500;11.188;2022-12-05T06:50:56;9.00;99.90
32865;DHT22;19219;44.500;11.188;2022-12-05T06:53:22;9.00;99.90
32865;DHT22;19219;44.500;11.188;2022-12-05T06:55:57;9.00;99.90
32865;DHT22;19219;44.500;11.188;2022-12-05T06:58:23;9.00;99.90
32865;DHT22;19219;44.500;11.188;2022-12-05T07:00:48;9.00;99.90
32865;DHT22;19219;44.500;11.188;2022-12-05T07:03:32;9.10;99.90
32865;DHT22;19219;44.500;11.188;2022-12-05T07:05:59;9.20;99.90
32865;DHT22;19219;44.500;11.188;2022-12-05T07:08:25;9.20;99.90
32865;DHT22;19219;44.500;11.188;2022-12-05T07:10:50;9.20;99.90
32865;DHT22;19219;44.500;11.188;2022-12-05T07:13:16;9.20;99.90
32865;DHT22;19219;44.500;11.188;2022-12-05T07:15:44;9.20;99.90
32865;DHT22;19219;44.500;11.188;2022-12-05T07:18:10;9.20;99.90
32865;DHT22;19219;44.500;11.188;2022-12-05T07:20:35;9.20;99.90
32865;DHT22;19219;44.500;11.188;2022-12-05T07:23:01;9.20;99.90
32865;DHT22;19219;44.500;11.188;2022-12-05T07:25:26;9.20;99.90
32865;DHT22;19219;44.500;11.188;2022-12-05T07:27:52;9.30;99.90
32865;DHT22;19219;44.500;11.188;2022-12-05T07:30:17;9.30;99.90
32865;DHT22;19219;44.500;11.188;2022-12-05T07:32:43;9.30;99.90
32865;DHT22;19219;44.500;11.188;2022-12-05T07:35:08;9.30;99.90
32865;DHT22;19219;44.500;11.188;2022-12-05T07:37:34;9.40;99.90
32865;DHT22;19219;44.500;11.188;2022-12-05T07:39:59;9.40;99.90
32865;DHT22;19219;44.500;11.188;2022-12-05T07:42:25;9.50;99.90
32865;DHT22;19219;44.500;11.188;2022-12-05T07:44:50;9.50;99.90
32865;DHT22;19219;44.500;11.188;2022-12-05T07:47:16;9.60;99.90
32865;DHT22;19219;44.500;11.188;2022-12-05T07:49:41;9.70;99.90
32865;DHT22;19219;44.500;11.188;2022-12-05T07:52:07;9.80;99.90
32865;DHT22;19219;44.500;11.188;2022-12-05T07:54:34;9.80;99.90
32865;DHT22;19219;44.500;11.188;2022-12-05T07:56:59;9.90;99.90
32865;DHT22;19219;44.500;11.188;2022-12-05T07:59:25;10.10;99.90
32865;DHT22;19219;44.500;11.188;2022-12-05T08:01:50;10.10;99.90
32865;DHT22;19219;44.500;11.188;2022-12-05T08:04:16;10.10;99.90
32865;DHT22;19219;44.500;11.188;2022-12-05T08:06:42;10.10;99.90
32865;DHT22;19219;44.500;11.188;2022-12-05T08:09:07;10.20;99.90
32865;DHT22;19219;44.500;11.188;2022-12-05T08:11:33;10.40;99.90
32865;DHT22;19219;44.500;11.188;2022-12-05T08:14:02;10.50;99.90
32865;DHT22;19219;44.500;11.188;2022-12-05T08:16:28;10.40;99.90
32865;DHT22;19219;44.500;11.188;2022-12-05T08:18:54;10.50;99.90
32865;DHT22;19219;44.500;11.188;2022-12-05T08:21:20;10.50;99.90
32865;DHT22;19219;44.500;11.188;2022-12-05T08:23:46;10.60;99.90
32865;DHT22;19219;44.500;11.188;2022-12-05T08:26:15;10.60;99.90
32865;DHT22;19219;44.500;11.188;2022-12-05T08:28:42;10.60;99.90
32865;DHT22;19219;44.500;11.188;2022-12-05T08:31:09;10.60;99.90
32865;DHT22;19219;44.500;11.188;2022-12-05T08:33:34;10.50;99.90
32865;DHT22;19219;44.500;11.188;2022-12-05T08:36:01;10.30;99.90
32865;DHT22;19219;44.500;11.188;2022-12-05T08:38:27;10.50;99.90
32865;DHT22;19219;44.500;11.188;2022-12-05T08:40:53;10.60;99.90
32865;DHT22;19219;44.500;11.188;2022-12-05T08:43:18;10.60;99.90
32865;DHT22;19219;44.500;11.188;2022-12-05T08:45:50;10.60;99.90
32865;DHT22;19219;44.500;11.188;2022-12-05T08:48:16;10.70;99.90
32865;DHT22;19219;44.500;11.188;2022-12-05T08:50:41;10.70;99.90
32865;DHT22;19219;44.500;11.188;2022-12-05T08:53:07;10.30;99.90
32865;DHT22;19219;44.500;11.188;2022-12-05T08:55:33;10.40;99.90
32865;DHT22;19219;44.500;11.188;2022-12-05T08:57:59;10.50;99.90
32865;DHT22;19219;44.500;11.188;2022-12-05T09:00:24;10.40;99.90
32865;DHT22;19219;44.500;11.188;2022-12-05T09:02:50;10.50;99.90
32865;DHT22;19219;44.500;11.188;2022-12-05T09:05:16;10.60;99.90
32865;DHT22;19219;44.500;11.188;2022-12-05T09:07:41;10.60;99.90
32865;DHT22;19219;44.500;11.188;2022-12-05T09:10:07;10.50;99.90
32865;DHT22;19219;44.500;11.188;2022-12-05T09:12:35;10.40;99.90
32865;DHT22;19219;44.500;11.188;2022-12-05T09:15:01;10.40;99.90
32865;DHT22;19219;44.500;11.188;2022-12-05T09:17:26;10.30;99.90
32865;DHT22;19219;44.500;11.188;2022-12-05T09:19:52;10.30;99.90
32865;DHT22;19219;44.500;11.188;2022-12-05T09:22:17;10.30;99.90
32865;DHT22;19219;44.500;11.188;2022-12-05T09:24:43;10.40;99.90
32865;DHT22;19219;44.500;11.188;2022-12-05T09:27:08;10.20;99.90
32865;DHT22;19219;44.500;11.188;2022-12-05T09:29:34;10.30;99.90
32865;DHT22;19219;44.500;11.188;2022-12-05T09:31:59;10.30;99.90
32865;DHT22;19219;44.500;11.188;2022-12-05T09:34:25;10.30;99.90
32865;DHT22;19219;44.500;11.188;2022-12-05T09:36:51;10.30;99.90
32865;DHT22;19219;44.500;11.188;2022-12-05T09:39:20;10.30;99.90
32865;DHT22;19219;44.500;11.188;2022-12-05T09:47:11;10.50;99.90
32865;DHT22;19219;44.500;11.188;2022-12-05T09:49:39;10.60;99.90
32865;DHT22;19219;44.500;11.188;2022-12-05T09:52:08;10.60;99.90
32865;DHT22;19219;44.500;11.188;2022-12-05T09:54:38;10.60;99.90
32865;DHT22;19219;44.500;11.188;2022-12-05T09:57:04;10.70;99.90
32865;DHT22;19219;44.500;11.188;2022-12-05T09:59:30;10.70;99.90
32865;DHT22;19219;44.500;11.188;2022-12-05T10:05:02;10.70;99.90
32865;DHT22;19219;44.500;11.188;2022-12-05T10:07:33;10.90;99.90
32865;DHT22;19219;44.500;11.188;2022-12-05T10:12:46;11.00;99.90
32865;DHT22;19219;44.500;11.188;2022-12-05T10:15:19;11.00;99.90
32865;DHT22;19219;44.500;11.188;2022-12-05T10:17:49;10.80;99.90
32865;DHT22;19219;44.500;11.188;2022-12-05T10:20:18;10.90;99.90
32865;DHT22;19219;44.500;11.188;2022-12-05T10:22:49;10.90;99.90
32865;DHT22;19219;44.500;11.188;2022-12-05T10:25:21;11.10;99.90
32865;DHT22;19219;44.500;11.188;2022-12-05T10:27:48;11.00;99.90
32865;DHT22;19219;44.500;11.188;2022-12-05T10:30:16;11.00;99.90
32865;DHT22;19219;44.500;11.188;2022-12-05T10:33:17;11.10;99.90
32865;DHT22;19219;44.500;11.188;2022-12-05T10:35:35;11.10;99.90
32865;DHT22;19219;44.500;11.188;2022-12-05T10:40:42;11.20;99.90
32865;DHT22;19219;44.500;11.188;2022-12-05T10:43:10;11.20;99.90
32865;DHT22;19219;44.500;11.188;2022-12-05T10:45:41;11.10;99.90
32865;DHT22;19219;44.500;11.188;2022-12-05T10:48:08;11.20;99.90
32865;DHT22;19219;44.500;11.188;2022-12-05T10:50:35;11.20;99.90
32865;DHT22;19219;44.500;11.188;2022-12-05T10:53:02;11.20;99.90
32865;DHT22;19219;44.500;11.188;2022-12-05T10:55:29;11.20;99.90
32865;DHT22;19219;44.500;11.188;2022-12-05T10:58:09;11.20;99.90
32865;DHT22;19219;44.500;11.188;2022-12-05T11:00:35;11.20;99.90
32865;DHT22;19219;44.500;11.188;2022-12-05T11:03:14;11.20;99.90
32865;DHT22;19219;44.500;11.188;2022-12-05T11:05:41;11.30;99.90
32865;DHT22;19219;44.500;11.188;2022-12-05T11:08:16;11.20;99.90
32865;DHT22;19219;44.500;11.188;2022-12-05T11:10:45;11.30;99.90
32865;DHT22;19219;44.500;11.188;2022-12-05T11:13:15;11.30;99.90
32865;DHT22;19219;44.500;11.188;2022-12-05T11:15:44;11.20;99.90
32865;DHT22;19219;44.500;11.188;2022-12-05T11:18:27;11.20;99.90
32865;DHT22;19219;44.500;11.188;2022-12-05T11:20:54;11.20;99.90
32865;DHT22;19219;44.500;11.188;2022-12-05T11:23:28;11.20;99.90
32865;DHT22;19219;44.500;11.188;2022-12-05T11:25:55;11.30;99.90
32865;DHT22;19219;44.500;11.188;2022-12-05T11:28:23;11.30;99.90
32865;DHT22;19219;44.500;11.188;2022-12-05T11:30:59;11.20;99.90
32865;DHT22;19219;44.500;11.188;2022-12-05T11:33:26;11.20;99.90
32865;DHT22;19219;44.500;11.188;2022-12-05T11:35:53;11.20;99.90
32865;DHT22;19219;44.500;11.188;2022-12-05T11:38:20;11.20;99.90
32865;DHT22;19219;44.500;11.188;2022-12-05T11:53:14;11.40;99.90
32865;DHT22;19219;44.500;11.188;2022-12-05T11:55:53;11.40;99.90
32865;DHT22;19219;44.500;11.188;2022-12-05T12:05:47;11.40;99.90
32865;DHT22;19219;44.500;11.188;2022-12-05T12:08:23;11.40;99.90
32865;DHT22;19219;44.500;11.188;2022-12-05T12:23:59;11.50;99.90
32865;DHT22;19219;44.500;11.188;2022-12-05T12:36:25;11.30;99.90
32865;DHT22;19219;44.500;11.188;2022-12-05T12:44:08;11.50;99.90
32865;DHT22;19219;44.500;11.188;2022-12-05T12:46:53;11.50;99.90
32865;DHT22;19219;44.500;11.188;2022-12-05T12:52:01;11.70;99.90
32865;DHT22;19219;44.500;11.188;2022-12-05T12:57:18;11.70;99.90
32865;DHT22;19219;44.500;11.188;2022-12-05T13:02:41;11.40;99.90
32865;DHT22;19219;44.500;11.188;2022-12-05T13:05:15;11.50;99.90
32865;DHT22;19219;44.500;11.188;2022-12-05T13:07:45;11.50;99.90
32865;DHT22;19219;44.500;11.188;2022-12-05T13:10:16;11.50;99.90
32865;DHT22;19219;44.500;11.188;2022-12-05T13:12:46;11.60;99.90
32865;DHT22;19219;44.500;11.188;2022-12-05T13:15:14;11.50;99.90
32865;DHT22;19219;44.500;11.188;2022-12-05T13:17:42;11.40;99.90
32865;DHT22;19219;44.500;11.188;2022-12-05T13:20:18;11.50;99.90
32865;DHT22;19219;44.500;11.188;2022-12-05T13:22:44;11.50;99.90
32865;DHT22;19219;44.500;11.188;2022-12-05T13:25:14;11.50;99.90
32865;DHT22;19219;44.500;11.188;2022-12-05T13:27:40;11.40;99.90
32865;DHT22;19219;44.500;11.188;2022-12-05T13:30:17;11.20;99.90
32865;DHT22;19219;44.500;11.188;2022-12-05T13:32:43;11.30;99.90
32865;DHT22;19219;44.500;11.188;2022-12-05T13:35:10;11.10;99.90
32865;DHT22;19219;44.500;11.188;2022-12-05T13:37:36;11.20;99.90
32865;DHT22;19219;44.500;11.188;2022-12-05T13:40:31;11.00;99.90
32865;DHT22;19219;44.500;11.188;2022-12-05T13:43:20;10.60;99.90
32865;DHT22;19219;44.500;11.188;2022-12-05T13:48:24;11.00;99.90
32865;DHT22;19219;44.500;11.188;2022-12-05T13:51:12;11.00;99.90
32865;DHT22;19219;44.500;11.188;2022-12-05T14:03:58;11.10;99.90
32865;DHT22;19219;44.500;11.188;2022-12-05T14:09:02;11.00;99.90
32865;DHT22;19219;44.500;11.188;2022-12-05T14:11:29;11.00;99.90
32865;DHT22;19219;44.500;11.188;2022-12-05T14:13:54;10.80;99.90
32865;DHT22;19219;44.500;11.188;2022-12-05T14:26:21;10.80;99.90
32865;DHT22;19219;44.500;11.188;2022-12-05T14:34:04;10.60;99.90
32865;DHT22;19219;44.500;11.188;2022-12-05T14:36:30;10.50;99.90
32865;DHT22;19219;44.500;11.188;2022-12-05T14:38:56;11.00;99.90
32865;DHT22;19219;44.500;11.188;2022-12-05T14:41:23;10.40;99.90
32865;DHT22;19219;44.500;11.188;2022-12-05T14:43:53;10.40;99.90
32865;DHT22;19219;44.500;11.188;2022-12-05T14:46:25;10.30;99.90
32865;DHT22;19219;44.500;11.188;2022-12-05T14:48:51;10.30;99.90
32865;DHT22;19219;44.500;11.188;2022-12-05T14:56:38;10.20;99.90
32865;DHT22;19219;44.500;11.188;2022-12-05T15:01:42;10.10;99.90
32865;DHT22;19219;44.500;11.188;2022-12-05T15:11:59;10.10;99.90
32865;DHT22;19219;44.500;11.188;2022-12-05T15:14:26;10.10;99.90
32865;DHT22;19219;44.500;11.188;2022-12-05T15:16:52;10.10;99.90
32865;DHT22;19219;44.500;11.188;2022-12-05T15:19:29;10.00;99.90
32865;DHT22;19219;44.500;11.188;2022-12-05T15:21:59;10.00;99.90
32865;DHT22;19219;44.500;11.188;2022-12-05T15:24:26;9.90;99.90
32865;DHT22;19219;44.500;11.188;2022-12-05T15:26:53;9.90;99.90
32865;DHT22;19219;44.500;11.188;2022-12-05T15:36:56;9.90;99.90
32865;DHT22;19219;44.500;11.188;2022-12-05T15:39:23;10.00;99.90
32865;DHT22;19219;44.500;11.188;2022-12-05T15:41:50;10.00;99.90
32865;DHT22;19219;44.500;11.188;2022-12-05T15:44:17;10.00;99.90
32865;DHT22;19219;44.500;11.188;2022-12-05T15:46:44;10.00;99.90
32865;DHT22;19219;44.500;11.188;2022-12-05T15:49:42;9.90;99.90
32865;DHT22;19219;44.500;11.188;2022-12-05T15:52:09;10.00;99.90
32865;DHT22;19219;44.500;11.188;2022-12-05T15:54:38;10.00;99.90
32865;DHT22;19219;44.500;11.188;2022-12-05T15:59:35;10.00;99.90
32865;DHT22;19219;44.500;11.188;2022-12-05T16:02:09;10.00;99.90
32865;DHT22;19219;44.500;11.188;2022-12-05T16:04:47;9.90;99.90
32865;DHT22;19219;44.500;11.188;2022-12-05T16:07:16;9.90;99.90
32865;DHT22;19219;44.500;11.188;2022-12-05T16:09:43;10.00;99.90
32865;DHT22;19219;44.500;11.188;2022-12-05T16:12:23;10.00;99.90
32865;DHT22;19219;44.500;11.188;2022-12-05T16:14:50;10.00;99.90
32865;DHT22;19219;44.500;11.188;2022-12-05T16:17:17;10.10;99.90
32865;DHT22;19219;44.500;11.188;2022-12-05T16:19:43;10.00;99.90
32865;DHT22;19219;44.500;11.188;2022-12-05T16:24:52;10.10;99.90
32865;DHT22;19219;44.500;11.188;2022-12-05T16:27:36;10.10;99.90
32865;DHT22;19219;44.500;11.188;2022-12-05T16:30:19;10.00;99.90
32865;DHT22;19219;44.500;11.188;2022-12-05T16:32:46;10.10;99.90
32865;DHT22;19219;44.500;11.188;2022-12-05T16:38:04;7.60;99.90
32865;DHT22;19219;44.500;11.188;2022-12-05T16:40:30;10.00;99.90
32865;DHT22;19219;44.500;11.188;2022-12-05T16:43:03;10.10;99.90
32865;DHT22;19219;44.500;11.188;2022-12-05T16:45:37;10.10;99.90
32865;DHT22;19219;44.500;11.188;2022-12-05T16:48:12;10.00;99.90
32865;DHT22;19219;44.500;11.188;2022-12-05T16:50:38;10.00;99.90
32865;DHT22;19219;44.500;11.188;2022-12-05T16:55:32;9.90;99.90
32865;DHT22;19219;44.500;11.188;2022-12-05T16:58:01;9.90;99.90
32865;DHT22;19219;44.500;11.188;2022-12-05T17:00:27;9.90;99.90
32865;DHT22;19219;44.500;11.188;2022-12-05T17:02:53;10.00;99.90
32865;DHT22;19219;44.500;11.188;2022-12-05T17:05:18;9.90;99.90
32865;DHT22;19219;44.500;11.188;2022-12-05T17:07:44;9.90;99.90
32865;DHT22;19219;44.500;11.188;2022-12-05T17:10:09;9.90;99.90
32865;DHT22;19219;44.500;11.188;2022-12-05T17:12:35;9.90;99.90
32865;DHT22;19219;44.500;11.188;2022-12-05T17:15:00;9.90;99.90
32865;DHT22;19219;44.500;11.188;2022-12-05T17:17:26;9.90;99.90
32865;DHT22;19219;44.500;11.188;2022-12-05T17:19:51;9.90;99.90
32865;DHT22;19219;44.500;11.188;2022-12-05T17:22:17;9.90;99.90
32865;DHT22;19219;44.500;11.188;2022-12-05T17:24:42;9.90;99.90
32865;DHT22;19219;44.500;11.188;2022-12-05T17:27:08;9.90;99.90
32865;DHT22;19219;44.500;11.188;2022-12-05T17:29:35;9.90;99.90
32865;DHT22;19219;44.500;11.188;2022-12-05T17:32:01;9.90;99.90
32865;DHT22;19219;44.500;11.188;2022-12-05T17:34:26;9.90;99.90
32865;DHT22;19219;44.500;11.188;2022-12-05T17:36:52;10.00;99.90
32865;DHT22;19219;44.500;11.188;2022-12-05T17:39:18;10.00;99.90
32865;DHT22;19219;44.500;11.188;2022-12-05T17:41:43;10.00;99.90
32865;DHT22;19219;44.500;11.188;2022-12-05T17:44:10;10.00;99.90
32865;DHT22;19219;44.500;11.188;2022-12-05T17:46:37;10.00;99.90
32865;DHT22;19219;44.500;11.188;2022-12-05T17:49:02;10.00;99.90
32865;DHT22;19219;44.500;11.188;2022-12-05T17:51:28;10.00;99.90
32865;DHT22;19219;44.500;11.188;2022-12-05T17:53:54;10.00;99.90
32865;DHT22;19219;44.500;11.188;2022-12-05T17:56:20;10.00;99.90
32865;DHT22;19219;44.500;11.188;2022-12-05T17:58:46;9.90;99.90
32865;DHT22;19219;44.500;11.188;2022-12-05T18:01:16;9.90;99.90
32865;DHT22;19219;44.500;11.188;2022-12-05T18:03:42;9.90;99.90
32865;DHT22;19219;44.500;11.188;2022-12-05T18:06:08;9.90;99.90
32865;DHT22;19219;44.500;11.188;2022-12-05T18:08:34;9.90;99.90
32865;DHT22;19219;44.500;11.188;2022-12-05T18:11:03;9.90;99.90
32865;DHT22;19219;44.500;11.188;2022-12-05T18:13:29;9.80;99.90
32865;DHT22;19219;44.500;11.188;2022-12-05T18:15:55;9.90;99.90
32865;DHT22;19219;44.500;11.188;2022-12-05T18:18:21;9.80;99.90
32865;DHT22;19219;44.500;11.188;2022-12-05T18:20:46;9.70;99.90
32865;DHT22;19219;44.500;11.188;2022-12-05T18:23:12;9.70;99.90
32865;DHT22;19219;44.500;11.188;2022-12-05T18:25:38;9.70;99.90
32865;DHT22;19219;44.500;11.188;2022-12-05T18:28:04;9.70;99.90